sensor_id;sensor_type;location;lat;lon;timestamp;noise_LAeq;noise_LA_min;noise_LA_max;noise_LA01;noise_LA95
70077;Laerm;57448;51.490;5.436;2023-01-28T00:01:18;41.78;32.40;58.04;;
70077;Laerm;57448;51.490;5.436;2023-01-28T00:03:41;40.85;33.43;51.79;;
70077;Laerm;57448;51.490;5.436;2023-01-28T00:06:03;40.13;34.15;51.09;;
70077;Laerm;57448;51.490;5.436;2023-01-28T00:08:25;39.99;34.56;50.38;;
70077;Laerm;57448;51.490;5.436;2023-01-28T00:10:47;39.45;34.32;49.97;;
70077;Laerm;57448;51.490;5.436;2023-01-28T00:13:09;40.37;34.54;52.01;;
70077;Laerm;57448;51.490;5.436;2023-01-28T00:15:33;40.83;33.59;61.23;;
70077;Laerm;57448;51.490;5.436;2023-01-28T00:17:55;42.15;34.10;60.96;;
70077;Laerm;57448;51.490;5.436;2023-01-28T00:20:18;41.90;33.91;64.08;;
70077;Laerm;57448;51.490;5.436;2023-01-28T00:22:40;43.16;35.67;57.95;;
70077;Laerm;57448;51.490;5.436;2023-01-28T00:25:02;46.19;35.14;66.94;;
70077;Laerm;57448;51.490;5.436;2023-01-28T00:27:24;42.17;36.34;51.59;;
70077;Laerm;57448;51.490;5.436;2023-01-28T00:29:46;43.37;36.16;54.56;;
70077;Laerm;57448;51.490;5.436;2023-01-28T00:32:08;43.13;35.59;61.07;;
70077;Laerm;57448;51.490;5.436;2023-01-28T00:34:30;43.39;36.49;58.09;;
70077;Laerm;57448;51.490;5.436;2023-01-28T00:36:53;40.77;34.61;49.67;;
70077;Laerm;57448;51.490;5.436;2023-01-28T00:39:17;41.19;33.86;53.14;;
70077;Laerm;57448;51.490;5.436;2023-01-28T00:41:39;39.95;35.14;48.76;;
70077;Laerm;57448;51.490;5.436;2023-01-28T00:44:01;43.86;35.50;65.56;;
70077;Laerm;57448;51.490;5.436;2023-01-28T00:46:23;41.53;34.76;57.76;;
70077;Laerm;57448;51.490;5.436;2023-01-28T00:48:45;40.78;34.42;53.94;;
70077;Laerm;57448;51.490;5.436;2023-01-28T00:51:07;40.67;33.34;60.39;;
70077;Laerm;57448;51.490;5.436;2023-01-28T00:53:31;40.13;33.95;52.51;;
70077;Laerm;57448;51.490;5.436;2023-01-28T00:55:54;38.58;33.91;47.27;;
70077;Laerm;57448;51.490;5.436;2023-01-28T00:58:15;37.58;33.60;47.53;;
70077;Laerm;57448;51.490;5.436;2023-01-28T01:00:37;38.27;33.32;53.44;;
70077;Laerm;57448;51.490;5.436;2023-01-28T01:02:59;36.58;33.09;46.51;;
70077;Laerm;57448;51.490;5.436;2023-01-28T01:05:21;37.76;32.20;49.64;;
70077;Laerm;57448;51.490;5.436;2023-01-28T01:07:42;38.15;32.96;48.95;;
70077;Laerm;57448;51.490;5.436;2023-01-28T01:10:06;38.34;31.88;45.64;;
70077;Laerm;57448;51.490;5.436;2023-01-28T01:12:29;39.08;33.50;49.16;;
70077;Laerm;57448;51.490;5.436;2023-01-28T01:14:50;40.89;33.18;58.93;;
70077;Laerm;57448;51.490;5.436;2023-01-28T01:17:12;38.78;33.21;57.18;;
70077;Laerm;57448;51.490;5.436;2023-01-28T01:19:35;36.96;32.37;45.98;;
70077;Laerm;57448;51.490;5.436;2023-01-28T01:21:57;34.15;31.27;40.92;;
70077;Laerm;57448;51.490;5.436;2023-01-28T01:24:19;34.72;31.82;38.94;;
70077;Laerm;57448;51.490;5.436;2023-01-28T01:26:42;36.05;31.77;42.25;;
70077;Laerm;57448;51.490;5.436;2023-01-28T01:29:04;35.91;30.90;44.20;;
70077;Laerm;57448;51.490;5.436;2023-01-28T01:31:25;36.25;32.28;42.01;;
70077;Laerm;57448;51.490;5.436;2023-01-28T01:33:48;35.94;31.37;44.41;;
70077;Laerm;57448;51.490;5.436;2023-01-28T01:36:10;35.59;31.34;43.44;;
70077;Laerm;57448;51.490;5.436;2023-01-28T01:38:32;35.58;30.95;44.15;;
70077;Laerm;57448;51.490;5.436;2023-01-28T01:40:55;35.72;31.45;47.25;;
70077;Laerm;57448;51.490;5.436;2023-01-28T01:43:19;35.04;31.00;43.51;;
70077;Laerm;57448;51.490;5.436;2023-01-28T01:45:41;36.46;31.81;45.82;;
70077;Laerm;57448;51.490;5.436;2023-01-28T01:48:04;36.23;32.10;42.56;;
70077;Laerm;57448;51.490;5.436;2023-01-28T01:50:30;35.85;31.57;47.26;;
70077;Laerm;57448;51.490;5.436;2023-01-28T01:52:54;34.61;30.40;42.85;;
70077;Laerm;57448;51.490;5.436;2023-01-28T01:55:17;34.52;30.82;38.47;;
70077;Laerm;57448;51.490;5.436;2023-01-28T01:57:41;32.85;29.85;42.77;;
70077;Laerm;57448;51.490;5.436;2023-01-28T02:00:05;33.09;30.41;37.39;;
70077;Laerm;57448;51.490;5.436;2023-01-28T02:02:27;34.01;31.08;38.81;;
70077;Laerm;57448;51.490;5.436;2023-01-28T02:04:49;34.01;30.33;40.67;;
70077;Laerm;57448;51.490;5.436;2023-01-28T02:07:12;33.99;30.64;38.60;;
70077;Laerm;57448;51.490;5.436;2023-01-28T02:09:35;34.82;30.86;41.39;;
70077;Laerm;57448;51.490;5.436;2023-01-28T02:12:05;33.76;30.46;37.99;;
70077;Laerm;57448;51.490;5.436;2023-01-28T02:14:29;34.06;30.98;41.23;;
70077;Laerm;57448;51.490;5.436;2023-01-28T02:16:53;34.10;31.15;38.71;;
70077;Laerm;57448;51.490;5.436;2023-01-28T02:19:15;35.26;31.84;40.20;;
70077;Laerm;57448;51.490;5.436;2023-01-28T02:21:44;35.61;31.93;41.30;;
70077;Laerm;57448;51.490;5.436;2023-01-28T02:24:27;35.46;31.87;41.43;;
70077;Laerm;57448;51.490;5.436;2023-01-28T02:26:58;34.38;31.00;40.44;;
70077;Laerm;57448;51.490;5.436;2023-01-28T02:29:26;35.44;31.03;41.04;;
70077;Laerm;57448;51.490;5.436;2023-01-28T02:31:52;35.74;31.22;48.54;;
70077;Laerm;57448;51.490;5.436;2023-01-28T02:34:17;36.68;33.37;42.86;;
70077;Laerm;57448;51.490;5.436;2023-01-28T02:36:40;37.27;33.32;45.60;;
70077;Laerm;57448;51.490;5.436;2023-01-28T02:39:06;36.90;31.46;46.20;;
70077;Laerm;57448;51.490;5.436;2023-01-28T02:41:30;37.74;31.99;47.07;;
70077;Laerm;57448;51.490;5.436;2023-01-28T02:43:53;36.16;32.11;41.19;;
70077;Laerm;57448;51.490;5.436;2023-01-28T02:46:21;38.16;31.75;50.21;;
70077;Laerm;57448;51.490;5.436;2023-01-28T02:49:00;35.37;30.78;43.54;;
70077;Laerm;57448;51.490;5.436;2023-01-28T02:51:24;34.21;30.75;41.98;;
70077;Laerm;57448;51.490;5.436;2023-01-28T02:53:49;34.98;30.99;41.05;;
70077;Laerm;57448;51.490;5.436;2023-01-28T02:56:14;55.34;30.90;70.92;;
70077;Laerm;57448;51.490;5.436;2023-01-28T02:58:40;36.78;30.80;55.45;;
70077;Laerm;57448;51.490;5.436;2023-01-28T03:01:07;42.18;31.27;57.52;;
70077;Laerm;57448;51.490;5.436;2023-01-28T03:03:33;34.86;31.15;38.73;;
70077;Laerm;57448;51.490;5.436;2023-01-28T03:05:57;33.68;30.93;40.24;;
70077;Laerm;57448;51.490;5.436;2023-01-28T03:08:26;33.81;30.72;38.02;;
70077;Laerm;57448;51.490;5.436;2023-01-28T03:11:05;33.77;31.03;38.28;;
70077;Laerm;57448;51.490;5.436;2023-01-28T03:13:44;35.87;31.57;42.21;;
70077;Laerm;57448;51.490;5.436;2023-01-28T03:16:25;34.32;31.12;41.12;;
70077;Laerm;57448;51.490;5.436;2023-01-28T03:19:05;35.26;31.44;43.67;;
70077;Laerm;57448;51.490;5.436;2023-01-28T03:21:45;34.42;31.33;39.71;;
70077;Laerm;57448;51.490;5.436;2023-01-28T03:24:27;35.39;31.60;42.78;;
70077;Laerm;57448;51.490;5.436;2023-01-28T03:27:09;34.93;31.14;40.82;;
70077;Laerm;57448;51.490;5.436;2023-01-28T03:29:50;37.43;32.15;45.97;;
70077;Laerm;57448;51.490;5.436;2023-01-28T03:32:32;36.82;33.10;43.51;;
70077;Laerm;57448;51.490;5.436;2023-01-28T03:35:13;35.96;32.76;43.23;;
70077;Laerm;57448;51.490;5.436;2023-01-28T03:37:54;35.96;32.05;44.80;;
70077;Laerm;57448;51.490;5.436;2023-01-28T03:40:19;34.62;31.73;40.16;;
70077;Laerm;57448;51.490;5.436;2023-01-28T03:42:41;36.25;31.09;45.23;;
70077;Laerm;57448;51.490;5.436;2023-01-28T03:45:03;36.04;31.95;43.52;;
70077;Laerm;57448;51.490;5.436;2023-01-28T03:47:28;36.23;31.61;41.38;;
70077;Laerm;57448;51.490;5.436;2023-01-28T03:49:50;34.45;31.65;38.78;;
70077;Laerm;57448;51.490;5.436;2023-01-28T03:52:14;34.57;31.10;39.48;;
70077;Laerm;57448;51.490;5.436;2023-01-28T03:54:36;34.45;30.76;40.77;;
70077;Laerm;57448;51.490;5.436;2023-01-28T03:56:58;34.06;30.88;39.75;;
70077;Laerm;57448;51.490;5.436;2023-01-28T03:59:20;34.62;31.74;38.51;;
70077;Laerm;57448;51.490;5.436;2023-01-28T04:01:41;33.70;30.84;39.41;;
70077;Laerm;57448;51.490;5.436;2023-01-28T04:04:03;33.78;30.30;38.49;;
70077;Laerm;57448;51.490;5.436;2023-01-28T04:06:25;34.50;31.03;39.30;;
70077;Laerm;57448;51.490;5.436;2023-01-28T04:08:49;36.05;30.97;43.66;;
70077;Laerm;57448;51.490;5.436;2023-01-28T04:11:13;35.18;31.76;43.32;;
70077;Laerm;57448;51.490;5.436;2023-01-28T04:13:39;36.90;31.74;44.61;;
70077;Laerm;57448;51.490;5.436;2023-01-28T04:16:01;36.91;32.60;45.48;;
70077;Laerm;57448;51.490;5.436;2023-01-28T04:18:22;37.38;33.38;42.99;;
70077;Laerm;57448;51.490;5.436;2023-01-28T04:20:47;38.31;34.71;45.27;;
70077;Laerm;57448;51.490;5.436;2023-01-28T04:23:09;38.21;33.17;44.91;;
70077;Laerm;57448;51.490;5.436;2023-01-28T04:25:32;38.55;34.23;46.13;;
70077;Laerm;57448;51.490;5.436;2023-01-28T04:27:54;39.72;32.70;48.62;;
70077;Laerm;57448;51.490;5.436;2023-01-28T04:30:16;38.56;34.48;44.48;;
70077;Laerm;57448;51.490;5.436;2023-01-28T04:32:38;39.05;35.26;47.15;;
70077;Laerm;57448;51.490;5.436;2023-01-28T04:34:59;38.70;33.69;46.07;;
70077;Laerm;57448;51.490;5.436;2023-01-28T04:37:21;38.75;34.39;51.81;;
70077;Laerm;57448;51.490;5.436;2023-01-28T04:39:43;40.05;36.03;49.16;;
70077;Laerm;57448;51.490;5.436;2023-01-28T04:42:06;39.65;35.74;47.25;;
70077;Laerm;57448;51.490;5.436;2023-01-28T04:44:27;39.59;35.24;46.02;;
70077;Laerm;57448;51.490;5.436;2023-01-28T04:46:49;39.51;34.60;48.45;;
70077;Laerm;57448;51.490;5.436;2023-01-28T04:49:11;39.80;35.06;49.64;;
70077;Laerm;57448;51.490;5.436;2023-01-28T04:51:33;39.24;35.01;45.29;;
70077;Laerm;57448;51.490;5.436;2023-01-28T04:53:54;40.47;34.42;47.65;;
70077;Laerm;57448;51.490;5.436;2023-01-28T04:56:16;38.69;34.04;47.51;;
70077;Laerm;57448;51.490;5.436;2023-01-28T04:58:39;38.62;34.35;43.19;;
70077;Laerm;57448;51.490;5.436;2023-01-28T05:01:01;38.00;33.51;43.98;;
70077;Laerm;57448;51.490;5.436;2023-01-28T05:03:22;39.23;34.25;44.79;;
70077;Laerm;57448;51.490;5.436;2023-01-28T05:05:44;39.38;34.96;46.92;;
70077;Laerm;57448;51.490;5.436;2023-01-28T05:08:06;39.71;34.64;47.14;;
70077;Laerm;57448;51.490;5.436;2023-01-28T05:10:27;41.04;35.36;49.61;;
70077;Laerm;57448;51.490;5.436;2023-01-28T05:12:49;38.59;33.65;50.20;;
70077;Laerm;57448;51.490;5.436;2023-01-28T05:15:12;38.19;33.79;44.91;;
70077;Laerm;57448;51.490;5.436;2023-01-28T05:17:34;38.05;34.04;44.93;;
70077;Laerm;57448;51.490;5.436;2023-01-28T05:19:56;39.39;34.64;44.56;;
70077;Laerm;57448;51.490;5.436;2023-01-28T05:22:17;40.72;36.69;45.54;;
70077;Laerm;57448;51.490;5.436;2023-01-28T05:24:39;40.30;35.20;46.96;;
70077;Laerm;57448;51.490;5.436;2023-01-28T05:27:01;39.16;35.80;44.58;;
70077;Laerm;57448;51.490;5.436;2023-01-28T05:29:22;40.08;35.91;53.36;;
70077;Laerm;57448;51.490;5.436;2023-01-28T05:31:46;38.63;35.47;45.00;;
70077;Laerm;57448;51.490;5.436;2023-01-28T05:34:07;39.57;36.13;45.11;;
70077;Laerm;57448;51.490;5.436;2023-01-28T05:36:29;40.22;36.06;46.08;;
70077;Laerm;57448;51.490;5.436;2023-01-28T05:38:51;41.12;36.49;49.58;;
70077;Laerm;57448;51.490;5.436;2023-01-28T05:41:12;40.64;37.31;48.99;;
70077;Laerm;57448;51.490;5.436;2023-01-28T05:43:34;40.99;36.04;48.43;;
70077;Laerm;57448;51.490;5.436;2023-01-28T05:45:56;40.14;36.62;47.62;;
70077;Laerm;57448;51.490;5.436;2023-01-28T05:48:19;40.88;36.67;47.27;;
70077;Laerm;57448;51.490;5.436;2023-01-28T05:50:40;39.94;36.01;44.91;;
70077;Laerm;57448;51.490;5.436;2023-01-28T05:53:03;39.41;35.39;45.75;;
70077;Laerm;57448;51.490;5.436;2023-01-28T05:55:25;38.74;34.54;47.36;;
70077;Laerm;57448;51.490;5.436;2023-01-28T05:57:47;38.97;35.12;45.27;;
70077;Laerm;57448;51.490;5.436;2023-01-28T06:00:09;38.75;34.74;47.41;;
70077;Laerm;57448;51.490;5.436;2023-01-28T06:02:31;38.83;34.78;48.04;;
70077;Laerm;57448;51.490;5.436;2023-01-28T06:04:54;39.45;36.02;46.64;;
70077;Laerm;57448;51.490;5.436;2023-01-28T06:07:16;39.62;35.85;43.91;;
70077;Laerm;57448;51.490;5.436;2023-01-28T06:09:39;38.66;34.30;48.15;;
70077;Laerm;57448;51.490;5.436;2023-01-28T06:12:01;38.66;34.54;43.03;;
70077;Laerm;57448;51.490;5.436;2023-01-28T06:14:23;50.83;35.30;71.50;;
70077;Laerm;57448;51.490;5.436;2023-01-28T06:16:44;66.30;39.32;78.25;;
70077;Laerm;57448;51.490;5.436;2023-01-28T06:19:06;42.05;36.40;56.02;;
70077;Laerm;57448;51.490;5.436;2023-01-28T06:21:29;41.02;36.77;45.82;;
70077;Laerm;57448;51.490;5.436;2023-01-28T06:23:51;41.95;37.48;48.76;;
70077;Laerm;57448;51.490;5.436;2023-01-28T06:26:12;63.09;37.67;80.88;;
70077;Laerm;57448;51.490;5.436;2023-01-28T06:28:34;63.02;36.19;78.05;;
70077;Laerm;57448;51.490;5.436;2023-01-28T06:30:56;40.91;36.80;47.89;;
70077;Laerm;57448;51.490;5.436;2023-01-28T06:33:17;40.19;35.99;46.35;;
70077;Laerm;57448;51.490;5.436;2023-01-28T06:35:39;57.75;35.06;75.22;;
70077;Laerm;57448;51.490;5.436;2023-01-28T06:38:02;62.28;36.67;77.98;;
70077;Laerm;57448;51.490;5.436;2023-01-28T06:40:24;39.92;35.86;47.27;;
70077;Laerm;57448;51.490;5.436;2023-01-28T06:42:46;40.75;36.17;49.77;;
70077;Laerm;57448;51.490;5.436;2023-01-28T06:45:08;42.42;38.40;48.69;;
70077;Laerm;57448;51.490;5.436;2023-01-28T06:47:30;41.62;37.84;48.02;;
70077;Laerm;57448;51.490;5.436;2023-01-28T06:49:51;41.23;37.14;56.55;;
70077;Laerm;57448;51.490;5.436;2023-01-28T06:52:13;45.93;38.61;61.21;;
70077;Laerm;57448;51.490;5.436;2023-01-28T06:54:36;44.89;37.77;59.91;;
70077;Laerm;57448;51.490;5.436;2023-01-28T06:56:58;46.09;36.87;61.42;;
70077;Laerm;57448;51.490;5.436;2023-01-28T06:59:19;43.91;37.99;59.99;;
70077;Laerm;57448;51.490;5.436;2023-01-28T07:01:41;43.78;39.08;51.49;;
70077;Laerm;57448;51.490;5.436;2023-01-28T07:04:03;47.43;36.92;76.27;;
70077;Laerm;57448;51.490;5.436;2023-01-28T07:06:24;39.91;36.48;45.46;;
70077;Laerm;57448;51.490;5.436;2023-01-28T07:08:46;50.98;36.17;66.46;;
70077;Laerm;57448;51.490;5.436;2023-01-28T07:11:09;42.12;36.36;63.28;;
70077;Laerm;57448;51.490;5.436;2023-01-28T07:13:31;42.91;38.44;61.42;;
70077;Laerm;57448;51.490;5.436;2023-01-28T07:15:53;48.74;36.57;71.72;;
70077;Laerm;57448;51.490;5.436;2023-01-28T07:18:14;41.40;36.44;51.87;;
70077;Laerm;57448;51.490;5.436;2023-01-28T07:20:36;44.07;38.03;64.41;;
70077;Laerm;57448;51.490;5.436;2023-01-28T07:22:58;42.96;36.95;60.65;;
70077;Laerm;57448;51.490;5.436;2023-01-28T07:25:19;43.76;38.28;62.41;;
70077;Laerm;57448;51.490;5.436;2023-01-28T07:27:46;47.72;39.02;73.60;;
70077;Laerm;57448;51.490;5.436;2023-01-28T07:30:09;46.02;37.85;69.02;;
70077;Laerm;57448;51.490;5.436;2023-01-28T07:32:31;42.93;38.01;49.15;;
70077;Laerm;57448;51.490;5.436;2023-01-28T07:34:53;49.22;39.02;73.64;;
70077;Laerm;57448;51.490;5.436;2023-01-28T07:37:15;46.45;38.54;65.32;;
70077;Laerm;57448;51.490;5.436;2023-01-28T07:39:36;45.95;38.40;66.58;;
70077;Laerm;57448;51.490;5.436;2023-01-28T07:41:58;43.91;38.62;61.97;;
70077;Laerm;57448;51.490;5.436;2023-01-28T07:44:21;43.91;39.42;53.93;;
70077;Laerm;57448;51.490;5.436;2023-01-28T07:46:43;48.87;40.07;73.79;;
70077;Laerm;57448;51.490;5.436;2023-01-28T07:49:04;46.50;40.09;63.78;;
70077;Laerm;57448;51.490;5.436;2023-01-28T07:51:26;44.47;39.42;58.68;;
70077;Laerm;57448;51.490;5.436;2023-01-28T07:53:47;57.24;39.60;72.25;;
70077;Laerm;57448;51.490;5.436;2023-01-28T07:56:09;43.89;39.22;52.91;;
70077;Laerm;57448;51.490;5.436;2023-01-28T07:58:31;58.71;39.28;74.86;;
70077;Laerm;57448;51.490;5.436;2023-01-28T08:00:56;45.36;39.97;53.60;;
70077;Laerm;57448;51.490;5.436;2023-01-28T08:03:18;45.63;40.84;61.22;;
70077;Laerm;57448;51.490;5.436;2023-01-28T08:05:41;60.93;40.48;76.00;;
70077;Laerm;57448;51.490;5.436;2023-01-28T08:08:04;50.41;39.29;66.18;;
70077;Laerm;57448;51.490;5.436;2023-01-28T08:10:26;45.70;39.35;69.52;;
70077;Laerm;57448;51.490;5.436;2023-01-28T08:12:51;42.87;37.73;53.58;;
70077;Laerm;57448;51.490;5.436;2023-01-28T08:15:13;59.31;39.41;73.81;;
70077;Laerm;57448;51.490;5.436;2023-01-28T08:17:36;61.18;39.44;76.73;;
70077;Laerm;57448;51.490;5.436;2023-01-28T08:19:57;44.18;40.55;55.13;;
70077;Laerm;57448;51.490;5.436;2023-01-28T08:22:22;44.84;40.20;60.71;;
70077;Laerm;57448;51.490;5.436;2023-01-28T08:24:45;45.80;41.38;59.45;;
70077;Laerm;57448;51.490;5.436;2023-01-28T08:27:06;48.10;40.62;72.59;;
70077;Laerm;57448;51.490;5.436;2023-01-28T08:29:28;45.88;40.64;60.39;;
70077;Laerm;57448;51.490;5.436;2023-01-28T08:31:50;45.35;39.22;64.61;;
70077;Laerm;57448;51.490;5.436;2023-01-28T08:34:13;41.96;37.96;63.69;;
70077;Laerm;57448;51.490;5.436;2023-01-28T08:36:34;43.39;37.77;56.80;;
70077;Laerm;57448;51.490;5.436;2023-01-28T08:38:56;43.53;38.19;61.39;;
70077;Laerm;57448;51.490;5.436;2023-01-28T08:41:18;60.05;39.65;76.55;;
70077;Laerm;57448;51.490;5.436;2023-01-28T08:43:39;62.19;40.64;79.72;;
70077;Laerm;57448;51.490;5.436;2023-01-28T08:46:04;44.46;39.47;55.06;;
70077;Laerm;57448;51.490;5.436;2023-01-28T08:48:25;46.14;37.69;69.20;;
70077;Laerm;57448;51.490;5.436;2023-01-28T08:50:48;43.60;36.31;60.54;;
70077;Laerm;57448;51.490;5.436;2023-01-28T08:53:11;61.19;37.55;77.80;;
70077;Laerm;57448;51.490;5.436;2023-01-28T08:55:33;46.60;36.84;63.34;;
70077;Laerm;57448;51.490;5.436;2023-01-28T08:57:55;53.21;36.76;80.09;;
70077;Laerm;57448;51.490;5.436;2023-01-28T09:00:17;52.77;36.67;79.96;;
70077;Laerm;57448;51.490;5.436;2023-01-28T09:02:39;43.76;36.92;66.76;;
70077;Laerm;57448;51.490;5.436;2023-01-28T09:05:00;44.11;37.08;64.77;;
70077;Laerm;57448;51.490;5.436;2023-01-28T09:07:23;60.56;38.25;75.32;;
70077;Laerm;57448;51.490;5.436;2023-01-28T09:09:45;42.35;36.95;54.08;;
70077;Laerm;57448;51.490;5.436;2023-01-28T09:12:07;43.36;38.65;61.28;;
70077;Laerm;57448;51.490;5.436;2023-01-28T09:14:30;42.21;38.44;56.56;;
70077;Laerm;57448;51.490;5.436;2023-01-28T09:16:52;42.14;37.37;55.43;;
70077;Laerm;57448;51.490;5.436;2023-01-28T09:19:13;43.06;38.44;61.55;;
70077;Laerm;57448;51.490;5.436;2023-01-28T09:21:37;44.47;38.07;63.02;;
70077;Laerm;57448;51.490;5.436;2023-01-28T09:24:00;43.30;38.13;57.93;;
70077;Laerm;57448;51.490;5.436;2023-01-28T09:26:22;45.73;37.67;61.98;;
70077;Laerm;57448;51.490;5.436;2023-01-28T09:28:43;42.95;38.52;61.50;;
70077;Laerm;57448;51.490;5.436;2023-01-28T09:31:05;42.57;38.93;51.10;;
70077;Laerm;57448;51.490;5.436;2023-01-28T09:33:27;42.41;38.73;62.21;;
70077;Laerm;57448;51.490;5.436;2023-01-28T09:35:49;41.52;38.02;54.16;;
70077;Laerm;57448;51.490;5.436;2023-01-28T09:38:11;40.94;36.75;59.37;;
70077;Laerm;57448;51.490;5.436;2023-01-28T09:40:35;41.07;37.23;58.84;;
70077;Laerm;57448;51.490;5.436;2023-01-28T09:43:00;42.56;38.54;64.70;;
70077;Laerm;57448;51.490;5.436;2023-01-28T09:45:24;49.77;39.97;72.51;;
70077;Laerm;57448;51.490;5.436;2023-01-28T09:47:49;46.47;40.84;57.62;;
70077;Laerm;57448;51.490;5.436;2023-01-28T09:50:13;46.57;42.73;56.06;;
70077;Laerm;57448;51.490;5.436;2023-01-28T09:52:38;45.72;40.69;61.35;;
70077;Laerm;57448;51.490;5.436;2023-01-28T09:55:01;50.14;39.42;69.34;;
70077;Laerm;57448;51.490;5.436;2023-01-28T09:57:25;63.67;40.63;80.48;;
70077;Laerm;57448;51.490;5.436;2023-01-28T09:59:50;46.06;39.64;59.16;;
70077;Laerm;57448;51.490;5.436;2023-01-28T10:02:20;46.62;42.27;51.08;;
70077;Laerm;57448;51.490;5.436;2023-01-28T10:04:48;48.20;41.30;56.26;;
70077;Laerm;57448;51.490;5.436;2023-01-28T10:07:26;48.88;41.58;62.84;;
70077;Laerm;57448;51.490;5.436;2023-01-28T10:09:50;48.06;41.47;66.54;;
70077;Laerm;57448;51.490;5.436;2023-01-28T10:12:24;45.62;40.75;57.28;;
70077;Laerm;57448;51.490;5.436;2023-01-28T10:14:53;46.59;41.73;60.95;;
70077;Laerm;57448;51.490;5.436;2023-01-28T10:17:16;48.51;42.56;69.87;;
70077;Laerm;57448;51.490;5.436;2023-01-28T10:19:41;48.55;42.45;68.10;;
70077;Laerm;57448;51.490;5.436;2023-01-28T10:22:03;46.99;42.21;59.90;;
70077;Laerm;57448;51.490;5.436;2023-01-28T10:24:27;49.43;44.21;55.55;;
70077;Laerm;57448;51.490;5.436;2023-01-28T10:26:48;48.21;43.48;55.60;;
70077;Laerm;57448;51.490;5.436;2023-01-28T10:29:12;49.24;42.18;67.90;;
70077;Laerm;57448;51.490;5.436;2023-01-28T10:31:35;52.27;41.99;69.71;;
70077;Laerm;57448;51.490;5.436;2023-01-28T10:33:58;45.72;41.03;64.61;;
70077;Laerm;57448;51.490;5.436;2023-01-28T10:36:18;46.99;43.10;58.26;;
70077;Laerm;57448;51.490;5.436;2023-01-28T10:38:38;51.63;41.84;65.04;;
70077;Laerm;57448;51.490;5.436;2023-01-28T10:40:59;48.37;42.63;64.21;;
70077;Laerm;57448;51.490;5.436;2023-01-28T10:43:20;46.64;42.05;59.06;;
70077;Laerm;57448;51.490;5.436;2023-01-28T10:45:42;50.10;44.43;66.44;;
70077;Laerm;57448;51.490;5.436;2023-01-28T10:48:12;49.62;45.10;56.35;;
70077;Laerm;57448;51.490;5.436;2023-01-28T10:50:33;49.09;44.90;64.40;;
70077;Laerm;57448;51.490;5.436;2023-01-28T10:52:54;51.98;43.65;67.53;;
70077;Laerm;57448;51.490;5.436;2023-01-28T10:55:15;50.28;42.40;66.87;;
70077;Laerm;57448;51.490;5.436;2023-01-28T10:57:35;49.28;41.88;65.30;;
70077;Laerm;57448;51.490;5.436;2023-01-28T11:00:08;45.90;42.50;63.57;;
70077;Laerm;57448;51.490;5.436;2023-01-28T11:02:29;46.96;40.16;64.58;;
70077;Laerm;57448;51.490;5.436;2023-01-28T11:05:00;46.43;38.61;69.57;;
70077;Laerm;57448;51.490;5.436;2023-01-28T11:07:21;44.09;38.64;64.57;;
70077;Laerm;57448;51.490;5.436;2023-01-28T11:09:43;48.08;41.58;63.92;;
70077;Laerm;57448;51.490;5.436;2023-01-28T11:12:10;46.49;41.22;60.64;;
70077;Laerm;57448;51.490;5.436;2023-01-28T11:14:31;47.17;42.94;60.42;;
70077;Laerm;57448;51.490;5.436;2023-01-28T11:16:52;48.93;43.61;55.80;;
70077;Laerm;57448;51.490;5.436;2023-01-28T11:19:12;48.80;43.17;53.88;;
70077;Laerm;57448;51.490;5.436;2023-01-28T11:21:33;48.38;43.67;66.34;;
70077;Laerm;57448;51.490;5.436;2023-01-28T11:23:54;49.79;43.13;68.64;;
70077;Laerm;57448;51.490;5.436;2023-01-28T11:26:16;45.98;41.98;61.47;;
70077;Laerm;57448;51.490;5.436;2023-01-28T11:28:38;48.66;42.74;71.39;;
70077;Laerm;57448;51.490;5.436;2023-01-28T11:30:59;46.64;41.20;57.52;;
70077;Laerm;57448;51.490;5.436;2023-01-28T11:33:21;64.18;39.52;80.08;;
70077;Laerm;57448;51.490;5.436;2023-01-28T11:35:51;61.19;39.17;75.53;;
70077;Laerm;57448;51.490;5.436;2023-01-28T11:38:16;41.14;36.63;59.21;;
70077;Laerm;57448;51.490;5.436;2023-01-28T11:40:36;41.60;36.64;55.29;;
70077;Laerm;57448;51.490;5.436;2023-01-28T11:42:56;63.19;37.26;79.45;;
70077;Laerm;57448;51.490;5.436;2023-01-28T11:45:18;41.69;37.32;61.34;;
70077;Laerm;57448;51.490;5.436;2023-01-28T11:47:51;40.62;36.60;50.64;;
70077;Laerm;57448;51.490;5.436;2023-01-28T11:50:23;63.60;37.07;81.53;;
70077;Laerm;57448;51.490;5.436;2023-01-28T11:52:48;42.82;37.13;54.29;;
70077;Laerm;57448;51.490;5.436;2023-01-28T11:55:19;44.99;36.86;66.78;;
70077;Laerm;57448;51.490;5.436;2023-01-28T11:57:43;62.01;38.81;79.34;;
70077;Laerm;57448;51.490;5.436;2023-01-28T12:00:24;41.72;37.01;59.49;;
70077;Laerm;57448;51.490;5.436;2023-01-28T12:02:48;40.89;35.86;63.88;;
70077;Laerm;57448;51.490;5.436;2023-01-28T12:05:19;41.71;36.66;63.45;;
70077;Laerm;57448;51.490;5.436;2023-01-28T12:07:44;40.80;36.27;57.58;;
70077;Laerm;57448;51.490;5.436;2023-01-28T12:10:08;42.44;35.91;64.03;;
70077;Laerm;57448;51.490;5.436;2023-01-28T12:12:39;41.79;34.25;61.75;;
70077;Laerm;57448;51.490;5.436;2023-01-28T12:15:04;37.15;33.63;49.52;;
70077;Laerm;57448;51.490;5.436;2023-01-28T12:17:31;56.13;33.75;73.64;;
70077;Laerm;57448;51.490;5.436;2023-01-28T12:19:59;61.70;34.32;78.14;;
70077;Laerm;57448;51.490;5.436;2023-01-28T12:22:28;48.78;34.81;69.27;;
70077;Laerm;57448;51.490;5.436;2023-01-28T12:24:58;48.28;35.03;65.20;;
70077;Laerm;57448;51.490;5.436;2023-01-28T12:27:24;39.24;35.13;56.83;;
70077;Laerm;57448;51.490;5.436;2023-01-28T12:29:50;42.94;35.27;60.97;;
70077;Laerm;57448;51.490;5.436;2023-01-28T12:32:20;37.83;34.41;49.38;;
70077;Laerm;57448;51.490;5.436;2023-01-28T12:37:32;43.90;36.18;59.71;;
70077;Laerm;57448;51.490;5.436;2023-01-28T12:39:59;45.78;35.70;66.00;;
70077;Laerm;57448;51.490;5.436;2023-01-28T12:42:25;45.95;36.30;67.63;;
70077;Laerm;57448;51.490;5.436;2023-01-28T12:44:51;47.07;36.30;66.21;;
70077;Laerm;57448;51.490;5.436;2023-01-28T12:47:14;48.98;35.64;71.93;;
70077;Laerm;57448;51.490;5.436;2023-01-28T12:49:38;43.29;36.23;63.10;;
70077;Laerm;57448;51.490;5.436;2023-01-28T12:52:01;45.51;34.98;72.93;;
70077;Laerm;57448;51.490;5.436;2023-01-28T12:54:23;40.24;35.20;54.08;;
70077;Laerm;57448;51.490;5.436;2023-01-28T12:56:48;40.34;34.57;53.04;;
70077;Laerm;57448;51.490;5.436;2023-01-28T12:59:10;40.11;36.16;54.43;;
70077;Laerm;57448;51.490;5.436;2023-01-28T13:01:36;61.52;36.06;78.10;;
70077;Laerm;57448;51.490;5.436;2023-01-28T13:03:59;62.56;38.23;77.72;;
70077;Laerm;57448;51.490;5.436;2023-01-28T13:06:23;46.43;39.77;60.86;;
70077;Laerm;57448;51.490;5.436;2023-01-28T13:08:46;47.40;37.55;68.55;;
70077;Laerm;57448;51.490;5.436;2023-01-28T13:11:09;41.78;36.83;57.64;;
70077;Laerm;57448;51.490;5.436;2023-01-28T13:13:31;39.53;35.38;55.37;;
70077;Laerm;57448;51.490;5.436;2023-01-28T13:15:52;61.00;36.08;77.33;;
70077;Laerm;57448;51.490;5.436;2023-01-28T13:20:45;43.60;35.73;66.77;;
70077;Laerm;57448;51.490;5.436;2023-01-28T13:23:18;41.39;35.38;60.89;;
70077;Laerm;57448;51.490;5.436;2023-01-28T13:25:46;41.25;35.54;62.52;;
70077;Laerm;57448;51.490;5.436;2023-01-28T13:28:24;40.59;35.15;58.49;;
70077;Laerm;57448;51.490;5.436;2023-01-28T13:30:46;41.59;34.84;67.87;;